createdAt,value
2022-12-01T00:00:31.250Z,28.42
2022-12-01T00:02:57.688Z,28.46
2022-12-01T00:05:24.061Z,28.46
2022-12-01T00:07:50.398Z,28.48
2022-12-01T00:10:16.780Z,28.48
2022-12-01T00:12:43.125Z,28.47
2022-12-01T00:15:09.551Z,28.46
2022-12-01T00:17:35.900Z,28.50
2022-12-01T00:20:02.269Z,28.53
2022-12-01T00:22:28.625Z,28.53
2022-12-01T00:24:55.009Z,28.53
2022-12-01T00:27:21.352Z,28.48
2022-12-01T00:29:48.202Z,28.48
2022-12-01T00:32:14.095Z,28.47
2022-12-01T00:34:40.461Z,28.63
2022-12-01T00:37:06.810Z,28.69
2022-12-01T00:39:33.209Z,28.67
2022-12-01T00:41:59.552Z,28.65
2022-12-01T00:44:25.940Z,28.59
2022-12-01T00:46:52.287Z,28.56
2022-12-01T00:49:18.711Z,28.56
2022-12-01T00:51:45.050Z,28.66
2022-12-01T00:54:11.443Z,28.65
2022-12-01T00:56:37.784Z,28.77
2022-12-01T00:59:04.174Z,28.76
2022-12-01T01:01:30.609Z,28.69
2022-12-01T01:03:56.927Z,28.73
2022-12-01T01:06:23.264Z,28.70
2022-12-01T01:08:49.658Z,28.78
2022-12-01T01:11:16.032Z,28.82
2022-12-01T01:13:42.408Z,28.77
2022-12-01T01:16:08.889Z,28.80
2022-12-01T01:18:36.467Z,28.79
2022-12-01T01:21:01.574Z,28.80
2022-12-01T01:23:28.019Z,28.80
2022-12-01T01:25:54.397Z,28.82
2022-12-01T01:28:20.789Z,28.80
2022-12-01T01:30:47.203Z,28.89
2022-12-01T01:33:13.528Z,28.85
2022-12-01T01:35:39.870Z,28.92
2022-12-01T01:38:06.253Z,28.92
2022-12-01T01:40:34.549Z,28.97
2022-12-01T01:42:58.991Z,28.96
2022-12-01T01:45:25.364Z,28.91
2022-12-01T01:47:51.786Z,28.93
2022-12-01T01:50:18.161Z,28.93
2022-12-01T01:52:44.574Z,28.95
2022-12-01T01:55:10.952Z,28.97
2022-12-01T01:57:37.365Z,29.02
2022-12-01T02:00:03.721Z,29.05
2022-12-01T02:02:30.183Z,29.08
2022-12-01T02:04:56.500Z,29.13
2022-12-01T02:07:22.951Z,29.03
2022-12-01T02:09:49.590Z,29.01
2022-12-01T02:12:15.665Z,29.08
2022-12-01T02:14:42.037Z,29.09
2022-12-01T02:17:08.481Z,29.08
2022-12-01T02:19:34.789Z,29.22
2022-12-01T02:22:01.169Z,29.23
2022-12-01T02:24:27.519Z,29.21
2022-12-01T02:26:54.870Z,29.17
2022-12-01T02:29:20.250Z,29.24
2022-12-01T02:31:46.634Z,29.18
2022-12-01T02:34:12.979Z,29.17
2022-12-01T02:36:39.364Z,29.21
2022-12-01T02:39:05.709Z,29.24
2022-12-01T02:41:32.108Z,29.23
2022-12-01T02:43:59.676Z,29.23
2022-12-01T02:46:24.951Z,29.33
2022-12-01T02:48:51.227Z,29.27
2022-12-01T02:51:17.612Z,29.39
2022-12-01T02:53:43.950Z,29.31
2022-12-01T02:56:10.342Z,29.30
2022-12-01T02:58:36.687Z,29.31
2022-12-01T03:01:03.229Z,29.29
2022-12-01T03:03:29.497Z,29.39
2022-12-01T03:05:55.880Z,29.45
2022-12-01T03:08:22.227Z,29.47
2022-12-01T03:10:48.608Z,29.34
2022-12-01T03:13:14.950Z,29.36
2022-12-01T03:15:41.370Z,29.28
2022-12-01T03:18:07.674Z,29.27
2022-12-01T03:20:34.069Z,29.26
2022-12-01T03:23:00.416Z,29.21
2022-12-01T03:25:26.796Z,29.20
2022-12-01T03:28:19.723Z,29.23
2022-12-01T03:30:19.529Z,29.30
2022-12-01T03:32:45.877Z,29.24
2022-12-01T03:35:12.269Z,29.24
2022-12-01T03:37:38.631Z,29.21
2022-12-01T03:40:05.021Z,29.16
2022-12-01T03:42:31.370Z,29.16
2022-12-01T03:44:57.716Z,29.10
2022-12-01T03:47:24.105Z,29.06
2022-12-01T03:49:50.881Z,28.97
2022-12-01T03:52:16.841Z,28.91
2022-12-01T03:54:43.182Z,28.86
2022-12-01T03:57:09.604Z,28.77
2022-12-01T03:59:35.989Z,28.69
2022-12-01T04:02:02.433Z,28.58
2022-12-01T04:04:28.721Z,28.55
2022-12-01T04:06:55.110Z,28.53
2022-12-01T04:09:21.454Z,28.53
2022-12-01T04:11:47.836Z,28.44
2022-12-01T04:14:14.184Z,28.49
2022-12-01T04:16:40.650Z,28.47
2022-12-01T04:19:06.985Z,28.39
2022-12-01T04:21:33.368Z,28.34
2022-12-01T04:23:59.720Z,28.32
2022-12-01T04:26:26.097Z,28.35
2022-12-01T04:28:52.435Z,28.25
2022-12-01T04:31:18.900Z,28.19
2022-12-01T04:33:45.173Z,28.22
2022-12-01T04:36:11.554Z,28.22
2022-12-01T04:38:37.902Z,28.18
2022-12-01T04:41:04.313Z,28.15
2022-12-01T04:43:30.652Z,28.12
2022-12-01T04:45:57.040Z,28.04
2022-12-01T04:48:23.388Z,28.04
2022-12-01T04:50:49.820Z,28.07
2022-12-01T04:53:16.166Z,28.02
2022-12-01T04:55:42.557Z,28.05
2022-12-01T04:58:08.902Z,27.99
2022-12-01T05:00:35.308Z,27.82
2022-12-01T05:03:01.635Z,27.77
2022-12-01T05:05:28.026Z,27.77
2022-12-01T05:07:54.475Z,27.73
2022-12-01T05:10:20.763Z,27.63
2022-12-01T05:12:47.105Z,27.57
2022-12-01T05:15:13.491Z,27.50
2022-12-01T05:17:39.878Z,27.40
2022-12-01T05:20:06.273Z,27.21
2022-12-01T05:23:03.645Z,27.21
2022-12-01T05:25:00.073Z,27.02
2022-12-01T05:27:26.418Z,27.00
2022-12-01T05:29:52.805Z,27.01
2022-12-01T05:32:19.161Z,27.38
2022-12-01T05:34:45.559Z,27.74
2022-12-01T05:37:11.905Z,27.32
2022-12-01T05:39:38.306Z,27.12
2022-12-01T05:42:04.654Z,27.15
2022-12-01T05:44:31.045Z,27.12
2022-12-01T05:46:57.393Z,26.92
2022-12-01T05:49:23.781Z,26.83
2022-12-01T05:51:50.138Z,26.60
2022-12-01T05:54:16.522Z,26.63
2022-12-01T05:56:42.863Z,26.50
2022-12-01T05:59:09.265Z,27.13
2022-12-01T06:01:36.656Z,28.28
2022-12-01T06:04:02.093Z,28.82
2022-12-01T06:06:28.371Z,28.76
2022-12-01T06:08:54.764Z,28.75
2022-12-01T06:11:21.103Z,28.72
2022-12-01T06:13:47.502Z,28.79
2022-12-01T06:16:13.912Z,28.90
2022-12-01T06:18:40.235Z,28.98
2022-12-01T06:21:06.614Z,28.82
2022-12-01T06:23:32.972Z,28.98
2022-12-01T06:25:59.325Z,28.93
2022-12-01T06:28:25.717Z,28.86
2022-12-01T06:30:52.063Z,28.71
2022-12-01T06:33:18.453Z,28.65
2022-12-01T06:35:44.804Z,28.45
2022-12-01T06:38:11.202Z,28.52
2022-12-01T06:40:37.596Z,28.31
2022-12-01T06:43:04.001Z,28.42
2022-12-01T06:45:30.412Z,28.26
2022-12-01T06:47:56.733Z,28.08
2022-12-01T06:50:23.078Z,28.10
2022-12-01T06:52:49.464Z,28.21
2022-12-01T06:55:15.808Z,28.22
2022-12-01T06:57:42.210Z,27.88
2022-12-01T07:00:09.032Z,27.86
2022-12-01T07:02:35.361Z,27.86
2022-12-01T07:05:01.679Z,27.73
2022-12-01T07:07:28.143Z,27.85
2022-12-01T07:09:54.424Z,27.73
2022-12-01T07:12:20.845Z,27.99
2022-12-01T07:14:47.187Z,27.94
2022-12-01T07:17:13.580Z,27.85
2022-12-01T07:19:39.949Z,27.67
2022-12-01T07:22:06.340Z,27.50
2022-12-01T07:24:32.702Z,27.52
2022-12-01T07:26:59.092Z,27.66
2022-12-01T07:29:26.553Z,27.85
2022-12-01T07:31:51.866Z,27.63
2022-12-01T07:34:18.205Z,27.54
2022-12-01T07:36:44.604Z,27.55
2022-12-01T07:39:10.965Z,27.57
2022-12-01T07:41:37.392Z,27.50
2022-12-01T07:44:03.729Z,27.60
2022-12-01T07:46:30.201Z,27.57
2022-12-01T07:48:56.555Z,27.55
2022-12-01T07:51:22.942Z,27.88
2022-12-01T07:53:49.339Z,27.60
2022-12-01T07:56:15.986Z,27.67
2022-12-01T07:58:44.589Z,27.47
2022-12-01T08:01:11.136Z,27.41
2022-12-01T08:03:37.375Z,28.16
2022-12-01T08:06:03.781Z,27.59
2022-12-01T08:08:30.139Z,27.51
2022-12-01T08:10:56.594Z,27.67
2022-12-01T08:13:23.113Z,28.31
2022-12-01T08:15:49.367Z,27.89
2022-12-01T08:18:15.668Z,27.99
2022-12-01T08:20:42.061Z,27.78
2022-12-01T08:23:08.407Z,27.73
2022-12-01T08:25:34.795Z,27.75
2022-12-01T08:28:01.154Z,27.61
2022-12-01T08:30:27.580Z,27.61
2022-12-01T08:32:53.946Z,27.54
2022-12-01T08:35:20.335Z,27.47
2022-12-01T08:37:49.163Z,27.56
2022-12-01T08:40:15.545Z,27.69
2022-12-01T08:42:41.900Z,27.78
2022-12-01T08:45:08.323Z,27.79
2022-12-01T08:47:34.664Z,27.84
2022-12-01T08:50:01.062Z,27.94
2022-12-01T08:52:27.417Z,28.11
2022-12-01T08:54:53.855Z,27.94
2022-12-01T08:57:20.207Z,28.02
2022-12-01T08:59:46.871Z,28.04
2022-12-01T09:02:12.969Z,27.94
2022-12-01T09:04:39.347Z,27.90
2022-12-01T09:07:05.713Z,27.99
2022-12-01T09:12:14.390Z,28.00
2022-12-01T09:14:40.733Z,27.90
2022-12-01T09:17:07.123Z,27.98
2022-12-01T09:19:33.467Z,28.06
2022-12-01T09:21:59.862Z,28.13
2022-12-01T09:24:26.208Z,27.98
2022-12-01T09:26:55.082Z,28.17
2022-12-01T09:29:21.437Z,28.14
2022-12-01T09:31:47.915Z,28.34
2022-12-01T09:34:14.216Z,28.31
2022-12-01T09:36:40.563Z,28.16
2022-12-01T09:39:06.914Z,28.15
2022-12-01T09:41:33.296Z,28.18
2022-12-01T09:43:59.646Z,28.30
2022-12-01T09:46:26.139Z,28.21
2022-12-01T09:48:52.418Z,28.34
2022-12-01T09:51:18.841Z,28.25
2022-12-01T09:53:45.181Z,28.11
2022-12-01T09:56:13.073Z,28.13
2022-12-01T09:58:37.927Z,27.85
2022-12-01T10:01:04.425Z,27.95
2022-12-01T10:06:27.483Z,28.23
2022-12-01T10:08:42.339Z,28.34
2022-12-01T10:11:08.724Z,28.30
2022-12-01T10:13:35.078Z,28.26
2022-12-01T10:16:01.641Z,28.28
2022-12-01T10:18:27.802Z,28.40
2022-12-01T10:20:54.182Z,28.26
2022-12-01T10:23:20.529Z,27.97
2022-12-01T10:25:46.947Z,28.26
2022-12-01T10:28:14.468Z,28.11
2022-12-01T10:30:39.645Z,28.01
2022-12-01T10:33:05.990Z,27.81
2022-12-01T10:35:32.375Z,27.96
2022-12-01T10:37:58.836Z,28.15
2022-12-01T10:40:25.113Z,27.80
2022-12-01T10:42:51.440Z,28.09
2022-12-01T10:45:17.848Z,27.89
2022-12-01T10:47:44.188Z,27.88
2022-12-01T10:50:10.587Z,28.05
2022-12-01T10:52:36.940Z,27.72
2022-12-01T10:55:03.330Z,27.97
2022-12-01T10:57:29.675Z,27.82
2022-12-01T10:59:56.072Z,27.85
2022-12-01T11:02:22.576Z,27.89
2022-12-01T11:04:48.812Z,27.56
2022-12-01T11:07:15.216Z,27.37
2022-12-01T11:09:41.645Z,27.66
2022-12-01T11:12:09.222Z,27.27
2022-12-01T11:14:34.391Z,27.69
2022-12-01T11:17:00.808Z,27.71
2022-12-01T11:19:27.917Z,27.59
2022-12-01T11:21:53.511Z,27.66
2022-12-01T11:24:20.231Z,28.06
2022-12-01T11:26:46.568Z,27.69
2022-12-01T11:29:12.951Z,27.70
2022-12-01T11:31:39.400Z,27.37
2022-12-01T11:34:05.728Z,26.99
2022-12-01T11:36:32.096Z,27.57
2022-12-01T11:38:58.475Z,27.12
2022-12-01T11:41:24.833Z,27.37
2022-12-01T11:44:01.243Z,27.54
2022-12-01T11:46:17.736Z,27.28
2022-12-01T11:48:44.080Z,27.01
2022-12-01T11:51:10.429Z,27.63
2022-12-01T11:53:36.824Z,27.75
2022-12-01T11:56:03.170Z,27.91
2022-12-01T11:58:29.623Z,27.41
2022-12-01T12:00:55.920Z,28.02
2022-12-01T12:03:22.375Z,28.26
2022-12-01T12:05:48.640Z,28.21
2022-12-01T12:08:15.070Z,27.76
2022-12-01T12:10:41.435Z,27.68
2022-12-01T12:13:07.780Z,28.08
2022-12-01T12:15:34.129Z,27.96
2022-12-01T12:18:02.304Z,27.64
2022-12-01T12:20:26.880Z,27.69
2022-12-01T12:22:55.672Z,27.75
2022-12-01T12:25:19.639Z,27.79
2022-12-01T12:27:46.042Z,27.76
2022-12-01T12:30:12.399Z,27.60
2022-12-01T12:32:38.783Z,27.71
2022-12-01T12:35:05.180Z,27.68
2022-12-01T12:37:31.586Z,27.65
2022-12-01T12:39:57.931Z,27.76
2022-12-01T12:42:24.306Z,27.61
2022-12-01T12:44:50.671Z,27.44
2022-12-01T12:47:17.061Z,27.73
2022-12-01T12:49:43.409Z,27.53
2022-12-01T12:52:09.799Z,27.56
2022-12-01T12:54:36.248Z,27.56
2022-12-01T12:57:02.538Z,27.14
2022-12-01T12:59:28.947Z,27.28
2022-12-01T13:01:55.406Z,27.41
2022-12-01T13:04:21.682Z,27.55
2022-12-01T13:06:48.066Z,27.35
2022-12-01T13:09:14.430Z,27.58
2022-12-01T13:11:40.844Z,27.56
2022-12-01T13:14:07.177Z,27.64
2022-12-01T13:16:33.618Z,27.90
2022-12-01T13:18:59.968Z,27.92
2022-12-01T13:21:26.386Z,27.86
2022-12-01T13:23:52.757Z,27.89
2022-12-01T13:26:19.110Z,27.87
2022-12-01T13:28:45.454Z,27.95
2022-12-01T13:31:11.897Z,27.86
2022-12-01T13:33:40.150Z,27.95
2022-12-01T13:36:44.689Z,27.90
2022-12-01T13:38:30.969Z,27.99
2022-12-01T13:40:57.375Z,28.00
2022-12-01T13:43:23.718Z,27.95
2022-12-01T13:45:50.128Z,27.96
2022-12-01T13:48:16.510Z,28.07
2022-12-01T13:50:42.911Z,28.06
2022-12-01T13:53:09.248Z,28.02
2022-12-01T13:55:35.635Z,28.16
2022-12-01T13:58:02.057Z,28.09
2022-12-01T14:00:28.523Z,28.19
2022-12-01T14:02:56.037Z,27.91
2022-12-01T14:05:21.200Z,27.95
2022-12-01T14:07:47.590Z,27.86
2022-12-01T14:10:13.953Z,27.76
2022-12-01T14:12:40.369Z,27.72
2022-12-01T14:15:06.720Z,27.73
2022-12-01T14:17:33.117Z,27.65
2022-12-01T14:19:59.498Z,27.60
2022-12-01T14:22:25.888Z,27.66
2022-12-01T14:24:52.561Z,27.69
2022-12-01T14:27:18.649Z,27.69
2022-12-01T14:29:44.987Z,27.92
2022-12-01T14:32:11.392Z,27.99
2022-12-01T14:34:37.742Z,28.37
2022-12-01T14:37:04.126Z,28.69
2022-12-01T14:39:30.477Z,28.58
2022-12-01T14:41:56.892Z,28.40
2022-12-01T14:44:23.291Z,28.40
2022-12-01T14:46:49.693Z,28.30
2022-12-01T14:49:16.007Z,28.33
2022-12-01T14:51:42.405Z,28.40
2022-12-01T14:54:08.764Z,28.49
2022-12-01T14:56:35.200Z,28.34
2022-12-01T14:59:01.571Z,28.30
2022-12-01T15:01:28.012Z,28.57
2022-12-01T15:03:54.290Z,28.46
2022-12-01T15:06:20.686Z,28.34
2022-12-01T15:09:04.175Z,28.29
2022-12-01T15:11:13.418Z,28.30
2022-12-01T15:13:39.767Z,28.66
2022-12-01T15:16:06.218Z,28.27
2022-12-01T15:18:32.515Z,28.12
2022-12-01T15:20:58.935Z,28.04
2022-12-01T15:23:25.276Z,27.98
2022-12-01T15:25:51.674Z,27.92
2022-12-01T15:28:18.019Z,27.83
2022-12-01T15:30:44.411Z,27.76
2022-12-01T15:33:10.750Z,27.89
2022-12-01T15:35:37.148Z,28.13
2022-12-01T15:38:03.481Z,28.18
2022-12-01T15:42:56.540Z,28.14
2022-12-01T15:45:22.920Z,28.17
2022-12-01T15:47:49.271Z,27.97
2022-12-01T15:50:15.670Z,28.05
2022-12-01T15:52:42.040Z,28.18
2022-12-01T15:55:08.430Z,28.18
2022-12-01T15:57:34.837Z,28.13
2022-12-01T16:00:01.285Z,28.07
2022-12-01T16:02:27.694Z,28.04
2022-12-01T16:04:54.029Z,28.06
2022-12-01T16:07:20.436Z,28.09
2022-12-01T16:09:46.783Z,28.20
2022-12-01T16:12:13.131Z,28.38
2022-12-01T16:14:39.511Z,28.52
2022-12-01T16:17:05.960Z,28.61
2022-12-01T16:19:32.253Z,28.43
2022-12-01T16:21:58.587Z,28.31
2022-12-01T16:24:24.983Z,28.52
2022-12-01T16:26:51.363Z,28.47
2022-12-01T16:29:17.744Z,28.19
2022-12-01T16:32:12.646Z,28.06
2022-12-01T16:34:38.060Z,27.86
2022-12-01T16:36:36.878Z,27.82
2022-12-01T16:39:03.263Z,27.78
2022-12-01T16:41:34.806Z,27.86
2022-12-01T16:44:26.461Z,27.72
2022-12-01T16:46:22.459Z,27.86
2022-12-01T16:48:48.788Z,27.98
2022-12-01T16:51:17.276Z,27.99
2022-12-01T16:53:41.520Z,27.83
2022-12-01T16:56:07.864Z,27.86
2022-12-01T16:58:34.271Z,27.81
2022-12-01T17:01:00.755Z,27.67
2022-12-01T17:03:27.081Z,27.73
2022-12-01T17:05:53.444Z,27.79
2022-12-01T17:08:19.855Z,27.63
2022-12-01T17:10:46.214Z,27.65
2022-12-01T17:13:12.657Z,27.62
2022-12-01T17:15:39.077Z,27.69
2022-12-01T17:18:05.436Z,27.84
2022-12-01T17:20:31.778Z,27.87
2022-12-01T17:22:58.209Z,27.83
2022-12-01T17:25:24.546Z,27.76
2022-12-01T17:27:50.929Z,27.79
2022-12-01T17:30:17.304Z,27.66
2022-12-01T17:32:43.701Z,27.63
2022-12-01T17:35:10.030Z,27.56
2022-12-01T17:37:36.429Z,27.64
2022-12-01T17:40:02.796Z,27.78
2022-12-01T17:42:29.221Z,27.99
2022-12-01T17:44:55.557Z,27.99
2022-12-01T17:47:21.947Z,27.95
2022-12-01T17:49:48.426Z,27.90
2022-12-01T17:52:14.762Z,27.76
2022-12-01T17:54:41.076Z,27.89
2022-12-01T17:57:07.544Z,27.79
2022-12-01T17:59:33.840Z,27.80
2022-12-01T18:02:00.290Z,27.72
2022-12-01T18:04:26.609Z,27.73
2022-12-01T18:06:54.464Z,27.66
2022-12-01T18:09:19.376Z,27.77
2022-12-01T18:11:45.853Z,27.90
2022-12-01T18:14:12.185Z,28.02
2022-12-01T18:16:38.661Z,27.98
2022-12-01T18:19:04.931Z,28.23
2022-12-01T18:21:31.313Z,28.19
2022-12-01T18:23:57.656Z,28.14
2022-12-01T18:26:24.065Z,28.12
2022-12-01T18:28:50.499Z,28.14
2022-12-01T18:31:17.013Z,28.11
2022-12-01T18:33:43.260Z,28.03
2022-12-01T18:36:09.664Z,27.83
2022-12-01T18:38:36.040Z,27.71
2022-12-01T18:41:02.434Z,27.66
2022-12-01T18:43:28.779Z,27.63
2022-12-01T18:45:55.175Z,27.67
2022-12-01T18:48:21.513Z,27.54
2022-12-01T18:50:47.896Z,27.59
2022-12-01T18:53:14.240Z,27.57
2022-12-01T18:55:40.626Z,27.69
2022-12-01T18:58:06.961Z,28.03
2022-12-01T19:00:33.416Z,28.10
2022-12-01T19:02:59.702Z,28.09
2022-12-01T19:05:26.086Z,28.25
2022-12-01T19:07:52.477Z,28.47
2022-12-01T19:10:20.480Z,28.76
2022-12-01T19:12:45.173Z,28.85
2022-12-01T19:15:11.567Z,28.89
2022-12-01T19:17:37.927Z,29.02
2022-12-01T19:20:04.484Z,29.06
2022-12-01T19:22:30.666Z,29.31
2022-12-01T19:24:57.279Z,29.25
2022-12-01T19:27:23.398Z,29.38
2022-12-01T19:29:49.795Z,29.40
2022-12-01T19:32:16.137Z,29.49
2022-12-01T19:34:44.485Z,29.54
2022-12-01T19:37:08.865Z,29.63
2022-12-01T19:39:35.274Z,29.78
2022-12-01T19:42:01.612Z,29.79
2022-12-01T19:44:28.006Z,29.85
2022-12-01T19:46:54.434Z,29.89
2022-12-01T19:49:20.758Z,29.91
2022-12-01T19:51:47.139Z,29.95
2022-12-01T19:54:13.518Z,30.08
2022-12-01T19:56:39.856Z,30.00
2022-12-01T19:59:06.242Z,30.11
2022-12-01T20:01:32.656Z,30.11
2022-12-01T20:03:58.976Z,30.16
2022-12-01T20:06:25.314Z,30.17
2022-12-01T20:08:51.712Z,30.17
2022-12-01T20:11:18.058Z,30.25
2022-12-01T20:13:44.443Z,30.22
2022-12-01T20:16:10.841Z,30.28
2022-12-01T20:18:37.176Z,30.33
2022-12-01T20:21:03.585Z,30.29
2022-12-01T20:23:29.970Z,30.38
2022-12-01T20:25:56.379Z,30.47
2022-12-01T20:28:22.769Z,30.46
2022-12-01T20:30:49.113Z,30.43
2022-12-01T20:33:15.531Z,30.43
2022-12-01T20:35:41.878Z,30.48
2022-12-01T20:38:08.312Z,30.50
2022-12-01T20:40:34.745Z,30.62
2022-12-01T20:43:01.130Z,30.56
2022-12-01T20:45:27.557Z,30.59
2022-12-01T20:47:53.862Z,30.58
2022-12-01T20:50:20.208Z,30.60
2022-12-01T20:52:46.602Z,30.65
2022-12-01T20:55:12.941Z,30.61
2022-12-01T20:57:39.320Z,30.61
2022-12-01T21:00:05.666Z,30.72
2022-12-01T21:02:32.113Z,30.80
2022-12-01T21:04:59.322Z,30.67
2022-12-01T21:07:24.812Z,30.66
2022-12-01T21:09:51.140Z,30.72
2022-12-01T21:12:17.536Z,30.69
2022-12-01T21:14:43.891Z,30.85
2022-12-01T21:17:10.315Z,30.79
2022-12-01T21:19:36.695Z,30.81
2022-12-01T21:22:03.003Z,30.94
2022-12-01T21:24:34.835Z,30.84
2022-12-01T21:26:55.734Z,30.87
2022-12-01T21:29:22.080Z,30.91
2022-12-01T21:31:48.458Z,30.91
2022-12-01T21:34:14.800Z,31.01
2022-12-01T21:36:41.185Z,30.94
2022-12-01T21:39:07.551Z,31.01
2022-12-01T21:41:33.940Z,30.95
2022-12-01T21:44:00.352Z,30.97
2022-12-01T21:46:26.767Z,30.96
2022-12-01T21:48:53.083Z,30.90
2022-12-01T21:51:19.468Z,30.95
2022-12-01T21:53:45.814Z,30.95
2022-12-01T21:56:12.205Z,31.00
2022-12-01T21:58:38.581Z,31.04
2022-12-01T22:01:05.024Z,31.09
2022-12-01T22:03:31.316Z,31.10
2022-12-01T22:06:27.724Z,31.13
2022-12-01T22:08:24.084Z,31.17
2022-12-01T22:10:50.461Z,31.17
2022-12-01T22:13:16.802Z,31.13
2022-12-01T22:15:43.233Z,31.15
2022-12-01T22:18:09.542Z,31.22
2022-12-01T22:20:35.931Z,31.28
2022-12-01T22:23:02.284Z,31.34
2022-12-01T22:25:28.739Z,31.36
2022-12-01T22:27:55.083Z,31.35
2022-12-01T22:30:21.470Z,31.32
2022-12-01T22:32:47.811Z,31.33
2022-12-01T22:35:14.203Z,31.33
2022-12-01T22:37:40.561Z,31.32
2022-12-01T22:40:06.939Z,31.31
2022-12-01T22:42:33.327Z,31.40
2022-12-01T22:44:59.711Z,31.34
2022-12-01T22:47:26.054Z,31.33
2022-12-01T22:49:52.434Z,31.44
2022-12-01T22:52:18.780Z,31.36
2022-12-01T22:54:45.176Z,31.51
2022-12-01T22:57:11.518Z,31.49
2022-12-01T22:59:37.902Z,31.49
2022-12-01T23:02:04.313Z,31.46
2022-12-01T23:04:30.667Z,31.49
2022-12-01T23:06:57.012Z,31.48
2022-12-01T23:09:23.394Z,31.49
2022-12-01T23:11:49.733Z,31.61
2022-12-01T23:14:16.125Z,31.62
2022-12-01T23:16:42.470Z,31.54
2022-12-01T23:19:10.524Z,31.57
2022-12-01T23:21:35.261Z,31.56
2022-12-01T23:24:01.611Z,31.54
2022-12-01T23:26:27.946Z,31.60
2022-12-01T23:28:54.330Z,31.58
2022-12-01T23:31:20.704Z,31.68
2022-12-01T23:33:47.139Z,31.64
2022-12-01T23:36:13.481Z,31.61
2022-12-01T23:38:41.144Z,31.77
2022-12-01T23:41:06.218Z,31.67
2022-12-01T23:43:32.622Z,31.64
2022-12-01T23:45:58.972Z,31.51
2022-12-01T23:48:25.386Z,31.56
2022-12-01T23:50:51.737Z,31.59
2022-12-01T23:53:18.109Z,31.56
2022-12-01T23:55:44.452Z,31.60
2022-12-01T23:58:10.835Z,31.58
